sensor_id;sensor_type;location;lat;lon;timestamp;P1;durP1;ratioP1;P2;durP2;ratioP2
37409;SDS011;23275;48.914;12.566;2024-02-28T00:01:18;38.38;;;18.70;;
37409;SDS011;23275;48.914;12.566;2024-02-28T00:03:44;32.92;;;17.73;;
37409;SDS011;23275;48.914;12.566;2024-02-28T00:06:09;34.22;;;18.85;;
37409;SDS011;23275;48.914;12.566;2024-02-28T00:08:35;33.13;;;19.67;;
37409;SDS011;23275;48.914;12.566;2024-02-28T00:11:01;31.27;;;17.83;;
37409;SDS011;23275;48.914;12.566;2024-02-28T00:13:27;34.53;;;19.23;;
37409;SDS011;23275;48.914;12.566;2024-02-28T00:15:52;32.90;;;19.38;;
37409;SDS011;23275;48.914;12.566;2024-02-28T00:18:18;35.97;;;18.40;;
37409;SDS011;23275;48.914;12.566;2024-02-28T00:20:44;34.50;;;18.73;;
37409;SDS011;23275;48.914;12.566;2024-02-28T00:23:10;36.38;;;20.40;;
37409;SDS011;23275;48.914;12.566;2024-02-28T00:25:35;35.67;;;19.85;;
37409;SDS011;23275;48.914;12.566;2024-02-28T00:28:01;38.88;;;21.20;;
37409;SDS011;23275;48.914;12.566;2024-02-28T00:30:27;35.63;;;18.15;;
37409;SDS011;23275;48.914;12.566;2024-02-28T00:32:53;36.38;;;19.85;;
37409;SDS011;23275;48.914;12.566;2024-02-28T00:35:19;37.25;;;21.55;;
37409;SDS011;23275;48.914;12.566;2024-02-28T00:37:45;33.75;;;18.27;;
37409;SDS011;23275;48.914;12.566;2024-02-28T00:40:10;36.50;;;19.83;;
37409;SDS011;23275;48.914;12.566;2024-02-28T00:42:36;34.35;;;18.25;;
37409;SDS011;23275;48.914;12.566;2024-02-28T00:45:02;34.90;;;19.63;;
37409;SDS011;23275;48.914;12.566;2024-02-28T00:47:28;34.42;;;18.60;;
37409;SDS011;23275;48.914;12.566;2024-02-28T00:49:54;34.15;;;18.38;;
37409;SDS011;23275;48.914;12.566;2024-02-28T00:52:19;34.72;;;18.42;;
37409;SDS011;23275;48.914;12.566;2024-02-28T00:54:45;32.42;;;18.13;;
37409;SDS011;23275;48.914;12.566;2024-02-28T00:57:10;32.67;;;17.88;;
37409;SDS011;23275;48.914;12.566;2024-02-28T00:59:36;33.05;;;17.50;;
37409;SDS011;23275;48.914;12.566;2024-02-28T01:02:01;31.70;;;17.20;;
37409;SDS011;23275;48.914;12.566;2024-02-28T01:04:28;38.97;;;18.73;;
37409;SDS011;23275;48.914;12.566;2024-02-28T01:06:54;34.45;;;18.58;;
37409;SDS011;23275;48.914;12.566;2024-02-28T01:09:20;27.13;;;15.15;;
37409;SDS011;23275;48.914;12.566;2024-02-28T01:11:46;22.48;;;12.60;;
37409;SDS011;23275;48.914;12.566;2024-02-28T01:14:12;18.65;;;11.10;;
37409;SDS011;23275;48.914;12.566;2024-02-28T01:16:37;22.00;;;11.70;;
37409;SDS011;23275;48.914;12.566;2024-02-28T01:19:03;22.45;;;12.30;;
37409;SDS011;23275;48.914;12.566;2024-02-28T01:21:28;39.00;;;12.13;;
37409;SDS011;23275;48.914;12.566;2024-02-28T01:23:54;18.48;;;11.45;;
37409;SDS011;23275;48.914;12.566;2024-02-28T01:26:20;24.42;;;12.68;;
37409;SDS011;23275;48.914;12.566;2024-02-28T01:28:47;22.23;;;13.77;;
37409;SDS011;23275;48.914;12.566;2024-02-28T01:31:13;29.52;;;13.95;;
37409;SDS011;23275;48.914;12.566;2024-02-28T01:33:39;134.00;;;14.13;;
37409;SDS011;23275;48.914;12.566;2024-02-28T01:36:08;29.05;;;13.77;;
37409;SDS011;23275;48.914;12.566;2024-02-28T01:38:33;23.65;;;14.48;;
37409;SDS011;23275;48.914;12.566;2024-02-28T01:40:59;42.10;;;14.40;;
37409;SDS011;23275;48.914;12.566;2024-02-28T01:43:25;74.13;;;15.00;;
37409;SDS011;23275;48.914;12.566;2024-02-28T01:45:51;85.95;;;13.85;;
37409;SDS011;23275;48.914;12.566;2024-02-28T01:48:16;85.95;;;15.93;;
37409;SDS011;23275;48.914;12.566;2024-02-28T01:50:42;27.83;;;16.10;;
37409;SDS011;23275;48.914;12.566;2024-02-28T01:53:08;31.17;;;15.95;;
37409;SDS011;23275;48.914;12.566;2024-02-28T01:55:36;28.83;;;16.38;;
37409;SDS011;23275;48.914;12.566;2024-02-28T01:58:02;29.15;;;17.45;;
37409;SDS011;23275;48.914;12.566;2024-02-28T02:00:30;32.35;;;16.77;;
37409;SDS011;23275;48.914;12.566;2024-02-28T02:02:59;35.53;;;18.50;;
37409;SDS011;23275;48.914;12.566;2024-02-28T02:05:28;37.13;;;18.90;;
37409;SDS011;23275;48.914;12.566;2024-02-28T02:07:54;36.00;;;18.83;;
37409;SDS011;23275;48.914;12.566;2024-02-28T02:10:21;38.28;;;20.38;;
37409;SDS011;23275;48.914;12.566;2024-02-28T02:12:48;36.33;;;19.58;;
37409;SDS011;23275;48.914;12.566;2024-02-28T02:15:13;35.83;;;19.30;;
37409;SDS011;23275;48.914;12.566;2024-02-28T02:17:39;42.70;;;20.38;;
37409;SDS011;23275;48.914;12.566;2024-02-28T02:20:05;43.20;;;19.90;;
37409;SDS011;23275;48.914;12.566;2024-02-28T02:22:36;37.72;;;18.65;;
37409;SDS011;23275;48.914;12.566;2024-02-28T02:25:03;31.77;;;16.80;;
37409;SDS011;23275;48.914;12.566;2024-02-28T02:27:29;27.90;;;15.45;;
37409;SDS011;23275;48.914;12.566;2024-02-28T02:29:55;29.83;;;15.40;;
37409;SDS011;23275;48.914;12.566;2024-02-28T02:32:20;30.88;;;15.73;;
37409;SDS011;23275;48.914;12.566;2024-02-28T02:34:46;34.22;;;17.15;;
37409;SDS011;23275;48.914;12.566;2024-02-28T02:37:11;34.70;;;16.60;;
37409;SDS011;23275;48.914;12.566;2024-02-28T02:39:37;33.30;;;17.48;;
37409;SDS011;23275;48.914;12.566;2024-02-28T02:42:02;30.77;;;14.95;;
37409;SDS011;23275;48.914;12.566;2024-02-28T02:44:28;27.23;;;15.70;;
37409;SDS011;23275;48.914;12.566;2024-02-28T02:46:53;35.80;;;18.10;;
37409;SDS011;23275;48.914;12.566;2024-02-28T02:49:19;28.77;;;16.02;;
37409;SDS011;23275;48.914;12.566;2024-02-28T02:51:45;55.25;;;14.68;;
37409;SDS011;23275;48.914;12.566;2024-02-28T02:54:10;35.30;;;13.98;;
37409;SDS011;23275;48.914;12.566;2024-02-28T02:56:36;21.88;;;13.07;;
37409;SDS011;23275;48.914;12.566;2024-02-28T02:59:02;24.90;;;14.52;;
37409;SDS011;23275;48.914;12.566;2024-02-28T03:01:27;26.20;;;13.40;;
37409;SDS011;23275;48.914;12.566;2024-02-28T03:03:53;22.13;;;12.63;;
37409;SDS011;23275;48.914;12.566;2024-02-28T03:06:19;20.38;;;11.68;;
37409;SDS011;23275;48.914;12.566;2024-02-28T03:08:45;25.70;;;13.65;;
37409;SDS011;23275;48.914;12.566;2024-02-28T03:11:10;18.70;;;11.85;;
37409;SDS011;23275;48.914;12.566;2024-02-28T03:13:36;32.90;;;12.40;;
37409;SDS011;23275;48.914;12.566;2024-02-28T03:16:05;96.53;;;11.50;;
37409;SDS011;23275;48.914;12.566;2024-02-28T03:18:31;23.90;;;11.70;;
37409;SDS011;23275;48.914;12.566;2024-02-28T03:20:56;27.20;;;12.55;;
37409;SDS011;23275;48.914;12.566;2024-02-28T03:23:22;31.13;;;13.20;;
37409;SDS011;23275;48.914;12.566;2024-02-28T03:25:47;27.27;;;14.55;;
37409;SDS011;23275;48.914;12.566;2024-02-28T03:28:13;30.17;;;16.33;;
37409;SDS011;23275;48.914;12.566;2024-02-28T03:30:38;26.17;;;14.02;;
37409;SDS011;23275;48.914;12.566;2024-02-28T03:33:04;71.07;;;15.85;;
37409;SDS011;23275;48.914;12.566;2024-02-28T03:35:30;40.80;;;14.73;;
37409;SDS011;23275;48.914;12.566;2024-02-28T03:37:55;29.23;;;13.70;;
37409;SDS011;23275;48.914;12.566;2024-02-28T03:40:21;30.83;;;14.50;;
37409;SDS011;23275;48.914;12.566;2024-02-28T03:42:47;31.17;;;14.20;;
37409;SDS011;23275;48.914;12.566;2024-02-28T03:45:12;34.70;;;14.20;;
37409;SDS011;23275;48.914;12.566;2024-02-28T03:47:38;26.05;;;13.20;;
37409;SDS011;23275;48.914;12.566;2024-02-28T03:50:03;26.55;;;11.65;;
37409;SDS011;23275;48.914;12.566;2024-02-28T03:52:29;23.05;;;12.30;;
37409;SDS011;23275;48.914;12.566;2024-02-28T03:54:55;22.77;;;12.35;;
37409;SDS011;23275;48.914;12.566;2024-02-28T03:57:22;23.85;;;12.90;;
37409;SDS011;23275;48.914;12.566;2024-02-28T03:59:47;21.38;;;11.20;;
37409;SDS011;23275;48.914;12.566;2024-02-28T04:02:13;20.70;;;11.70;;
37409;SDS011;23275;48.914;12.566;2024-02-28T04:04:39;22.52;;;12.05;;
37409;SDS011;23275;48.914;12.566;2024-02-28T04:07:04;21.20;;;12.60;;
37409;SDS011;23275;48.914;12.566;2024-02-28T04:09:30;24.55;;;12.05;;
37409;SDS011;23275;48.914;12.566;2024-02-28T04:11:56;23.15;;;12.85;;
37409;SDS011;23275;48.914;12.566;2024-02-28T04:14:22;25.15;;;12.75;;
37409;SDS011;23275;48.914;12.566;2024-02-28T04:16:47;21.08;;;12.45;;
37409;SDS011;23275;48.914;12.566;2024-02-28T04:19:15;18.77;;;11.75;;
37409;SDS011;23275;48.914;12.566;2024-02-28T04:21:40;20.27;;;11.43;;
37409;SDS011;23275;48.914;12.566;2024-02-28T04:24:07;28.98;;;12.30;;
37409;SDS011;23275;48.914;12.566;2024-02-28T04:26:34;20.70;;;10.60;;
37409;SDS011;23275;48.914;12.566;2024-02-28T04:29:01;17.58;;;10.80;;
37409;SDS011;23275;48.914;12.566;2024-02-28T04:31:29;25.60;;;11.80;;
37409;SDS011;23275;48.914;12.566;2024-02-28T04:33:55;28.70;;;11.82;;
37409;SDS011;23275;48.914;12.566;2024-02-28T04:36:21;20.92;;;11.73;;
37409;SDS011;23275;48.914;12.566;2024-02-28T04:38:46;32.30;;;11.95;;
37409;SDS011;23275;48.914;12.566;2024-02-28T04:41:12;37.78;;;12.13;;
37409;SDS011;23275;48.914;12.566;2024-02-28T04:43:37;29.20;;;11.63;;
37409;SDS011;23275;48.914;12.566;2024-02-28T04:46:03;26.23;;;11.88;;
37409;SDS011;23275;48.914;12.566;2024-02-28T04:48:29;19.60;;;11.10;;
37409;SDS011;23275;48.914;12.566;2024-02-28T04:50:54;20.98;;;11.73;;
37409;SDS011;23275;48.914;12.566;2024-02-28T04:53:20;21.65;;;11.85;;
37409;SDS011;23275;48.914;12.566;2024-02-28T04:55:45;18.17;;;11.63;;
37409;SDS011;23275;48.914;12.566;2024-02-28T04:58:11;24.08;;;14.27;;
37409;SDS011;23275;48.914;12.566;2024-02-28T05:00:36;30.10;;;16.17;;
37409;SDS011;23275;48.914;12.566;2024-02-28T05:03:02;23.70;;;14.40;;
37409;SDS011;23275;48.914;12.566;2024-02-28T05:05:28;28.60;;;15.45;;
37409;SDS011;23275;48.914;12.566;2024-02-28T05:07:57;23.60;;;13.77;;
37409;SDS011;23275;48.914;12.566;2024-02-28T05:10:22;28.55;;;15.00;;
37409;SDS011;23275;48.914;12.566;2024-02-28T05:12:48;30.98;;;16.73;;
37409;SDS011;23275;48.914;12.566;2024-02-28T05:15:13;30.90;;;16.75;;
37409;SDS011;23275;48.914;12.566;2024-02-28T05:17:39;34.60;;;17.92;;
37409;SDS011;23275;48.914;12.566;2024-02-28T05:20:05;36.50;;;17.13;;
37409;SDS011;23275;48.914;12.566;2024-02-28T05:22:31;35.35;;;18.25;;
37409;SDS011;23275;48.914;12.566;2024-02-28T05:24:56;30.08;;;16.58;;
37409;SDS011;23275;48.914;12.566;2024-02-28T05:27:22;35.95;;;19.20;;
37409;SDS011;23275;48.914;12.566;2024-02-28T05:29:47;34.70;;;17.15;;
37409;SDS011;23275;48.914;12.566;2024-02-28T05:32:13;32.72;;;17.63;;
37409;SDS011;23275;48.914;12.566;2024-02-28T05:34:38;43.95;;;18.45;;
37409;SDS011;23275;48.914;12.566;2024-02-28T05:37:05;41.15;;;18.02;;
37409;SDS011;23275;48.914;12.566;2024-02-28T05:39:30;32.60;;;18.10;;
37409;SDS011;23275;48.914;12.566;2024-02-28T05:41:56;30.90;;;18.08;;
37409;SDS011;23275;48.914;12.566;2024-02-28T05:44:22;34.78;;;18.52;;
37409;SDS011;23275;48.914;12.566;2024-02-28T05:46:49;37.00;;;19.00;;
37409;SDS011;23275;48.914;12.566;2024-02-28T05:49:15;35.03;;;18.58;;
37409;SDS011;23275;48.914;12.566;2024-02-28T05:51:40;37.58;;;18.60;;
37409;SDS011;23275;48.914;12.566;2024-02-28T05:54:06;43.17;;;19.75;;
37409;SDS011;23275;48.914;12.566;2024-02-28T05:56:32;36.50;;;18.70;;
37409;SDS011;23275;48.914;12.566;2024-02-28T05:58:57;44.58;;;20.20;;
37409;SDS011;23275;48.914;12.566;2024-02-28T06:01:23;37.83;;;18.63;;
37409;SDS011;23275;48.914;12.566;2024-02-28T06:03:48;36.08;;;18.95;;
37409;SDS011;23275;48.914;12.566;2024-02-28T06:06:14;31.83;;;17.83;;
37409;SDS011;23275;48.914;12.566;2024-02-28T06:08:40;36.17;;;18.65;;
37409;SDS011;23275;48.914;12.566;2024-02-28T06:11:06;37.10;;;16.75;;
37409;SDS011;23275;48.914;12.566;2024-02-28T06:13:32;30.30;;;16.95;;
37409;SDS011;23275;48.914;12.566;2024-02-28T06:15:58;31.60;;;17.02;;
37409;SDS011;23275;48.914;12.566;2024-02-28T06:18:24;31.40;;;16.05;;
37409;SDS011;23275;48.914;12.566;2024-02-28T06:20:54;26.10;;;14.35;;
37409;SDS011;23275;48.914;12.566;2024-02-28T06:23:20;25.33;;;14.85;;
37409;SDS011;23275;48.914;12.566;2024-02-28T06:25:46;25.58;;;14.35;;
37409;SDS011;23275;48.914;12.566;2024-02-28T06:28:12;26.63;;;14.30;;
37409;SDS011;23275;48.914;12.566;2024-02-28T06:30:37;23.63;;;13.82;;
37409;SDS011;23275;48.914;12.566;2024-02-28T06:33:03;26.60;;;13.95;;
37409;SDS011;23275;48.914;12.566;2024-02-28T06:35:29;21.42;;;13.70;;
37409;SDS011;23275;48.914;12.566;2024-02-28T06:37:55;28.58;;;17.08;;
37409;SDS011;23275;48.914;12.566;2024-02-28T06:40:20;25.80;;;14.90;;
37409;SDS011;23275;48.914;12.566;2024-02-28T06:42:46;26.90;;;15.38;;
37409;SDS011;23275;48.914;12.566;2024-02-28T06:45:11;22.88;;;13.85;;
37409;SDS011;23275;48.914;12.566;2024-02-28T06:47:37;20.25;;;12.70;;
37409;SDS011;23275;48.914;12.566;2024-02-28T06:50:03;20.65;;;12.55;;
37409;SDS011;23275;48.914;12.566;2024-02-28T06:52:30;19.67;;;12.32;;
37409;SDS011;23275;48.914;12.566;2024-02-28T06:54:55;22.17;;;12.35;;
37409;SDS011;23275;48.914;12.566;2024-02-28T06:57:21;22.95;;;12.82;;
37409;SDS011;23275;48.914;12.566;2024-02-28T06:59:46;24.77;;;13.02;;
37409;SDS011;23275;48.914;12.566;2024-02-28T07:02:13;21.63;;;13.55;;
37409;SDS011;23275;48.914;12.566;2024-02-28T07:04:39;24.73;;;13.23;;
37409;SDS011;23275;48.914;12.566;2024-02-28T07:07:05;21.88;;;12.80;;
37409;SDS011;23275;48.914;12.566;2024-02-28T07:09:31;23.15;;;13.45;;
37409;SDS011;23275;48.914;12.566;2024-02-28T07:11:57;20.60;;;13.15;;
37409;SDS011;23275;48.914;12.566;2024-02-28T07:14:24;18.60;;;12.23;;
37409;SDS011;23275;48.914;12.566;2024-02-28T07:16:50;20.23;;;11.93;;
37409;SDS011;23275;48.914;12.566;2024-02-28T07:19:19;20.80;;;13.05;;
37409;SDS011;23275;48.914;12.566;2024-02-28T07:21:44;24.45;;;13.52;;
37409;SDS011;23275;48.914;12.566;2024-02-28T07:24:10;21.80;;;13.15;;
37409;SDS011;23275;48.914;12.566;2024-02-28T07:26:35;20.67;;;13.30;;
37409;SDS011;23275;48.914;12.566;2024-02-28T07:29:01;20.13;;;11.77;;
37409;SDS011;23275;48.914;12.566;2024-02-28T07:31:27;21.63;;;12.55;;
37409;SDS011;23275;48.914;12.566;2024-02-28T07:33:52;21.60;;;12.48;;
37409;SDS011;23275;48.914;12.566;2024-02-28T07:36:19;20.85;;;12.98;;
37409;SDS011;23275;48.914;12.566;2024-02-28T07:38:44;23.50;;;13.68;;
37409;SDS011;23275;48.914;12.566;2024-02-28T07:41:10;23.63;;;13.75;;
37409;SDS011;23275;48.914;12.566;2024-02-28T07:43:35;21.77;;;13.95;;
37409;SDS011;23275;48.914;12.566;2024-02-28T07:46:07;30.13;;;17.23;;
37409;SDS011;23275;48.914;12.566;2024-02-28T07:48:34;26.60;;;13.93;;
37409;SDS011;23275;48.914;12.566;2024-02-28T07:51:00;26.83;;;14.35;;
37409;SDS011;23275;48.914;12.566;2024-02-28T07:53:29;26.02;;;14.70;;
37409;SDS011;23275;48.914;12.566;2024-02-28T07:56:18;26.17;;;15.35;;
37409;SDS011;23275;48.914;12.566;2024-02-28T07:58:45;26.13;;;14.15;;
37409;SDS011;23275;48.914;12.566;2024-02-28T08:01:11;27.10;;;15.30;;
37409;SDS011;23275;48.914;12.566;2024-02-28T08:03:39;25.15;;;14.50;;
37409;SDS011;23275;48.914;12.566;2024-02-28T08:06:06;29.10;;;15.47;;
37409;SDS011;23275;48.914;12.566;2024-02-28T08:08:33;29.75;;;15.52;;
37409;SDS011;23275;48.914;12.566;2024-02-28T08:11:00;27.02;;;15.65;;
37409;SDS011;23275;48.914;12.566;2024-02-28T08:13:25;29.65;;;14.65;;
37409;SDS011;23275;48.914;12.566;2024-02-28T08:15:53;25.70;;;14.25;;
37409;SDS011;23275;48.914;12.566;2024-02-28T08:18:24;28.65;;;15.55;;
37409;SDS011;23275;48.914;12.566;2024-02-28T08:21:22;27.85;;;14.32;;
37409;SDS011;23275;48.914;12.566;2024-02-28T08:23:48;27.13;;;14.98;;
37409;SDS011;23275;48.914;12.566;2024-02-28T08:26:14;24.60;;;14.95;;
37409;SDS011;23275;48.914;12.566;2024-02-28T08:28:40;24.58;;;14.43;;
37409;SDS011;23275;48.914;12.566;2024-02-28T08:31:05;29.90;;;15.73;;
37409;SDS011;23275;48.914;12.566;2024-02-28T08:33:31;27.17;;;15.43;;
37409;SDS011;23275;48.914;12.566;2024-02-28T08:35:56;27.52;;;14.65;;
37409;SDS011;23275;48.914;12.566;2024-02-28T08:38:22;24.85;;;15.20;;
37409;SDS011;23275;48.914;12.566;2024-02-28T08:40:47;29.05;;;15.77;;
37409;SDS011;23275;48.914;12.566;2024-02-28T08:43:13;26.58;;;15.60;;
37409;SDS011;23275;48.914;12.566;2024-02-28T08:45:38;33.30;;;17.75;;
37409;SDS011;23275;48.914;12.566;2024-02-28T08:48:04;25.55;;;15.15;;
37409;SDS011;23275;48.914;12.566;2024-02-28T08:50:31;25.92;;;14.57;;
37409;SDS011;23275;48.914;12.566;2024-02-28T08:52:56;25.17;;;14.55;;
37409;SDS011;23275;48.914;12.566;2024-02-28T08:55:22;24.65;;;14.85;;
37409;SDS011;23275;48.914;12.566;2024-02-28T08:57:48;25.08;;;14.77;;
37409;SDS011;23275;48.914;12.566;2024-02-28T09:00:14;26.05;;;14.82;;
37409;SDS011;23275;48.914;12.566;2024-02-28T09:02:40;27.60;;;14.15;;
37409;SDS011;23275;48.914;12.566;2024-02-28T09:05:06;25.90;;;15.15;;
37409;SDS011;23275;48.914;12.566;2024-02-28T09:07:32;27.52;;;15.70;;
37409;SDS011;23275;48.914;12.566;2024-02-28T09:10:00;27.25;;;15.27;;
37409;SDS011;23275;48.914;12.566;2024-02-28T09:12:28;27.67;;;16.05;;
37409;SDS011;23275;48.914;12.566;2024-02-28T09:14:53;37.55;;;17.05;;
37409;SDS011;23275;48.914;12.566;2024-02-28T09:17:22;32.65;;;17.48;;
37409;SDS011;23275;48.914;12.566;2024-02-28T09:19:48;47.78;;;23.38;;
37409;SDS011;23275;48.914;12.566;2024-02-28T09:22:14;48.20;;;25.60;;
37409;SDS011;23275;48.914;12.566;2024-02-28T09:24:41;33.88;;;18.50;;
37409;SDS011;23275;48.914;12.566;2024-02-28T09:27:07;40.28;;;21.02;;
37409;SDS011;23275;48.914;12.566;2024-02-28T09:29:33;36.78;;;20.48;;
37409;SDS011;23275;48.914;12.566;2024-02-28T09:31:58;43.00;;;22.25;;
37409;SDS011;23275;48.914;12.566;2024-02-28T09:34:24;47.50;;;25.27;;
37409;SDS011;23275;48.914;12.566;2024-02-28T09:36:50;40.88;;;21.48;;
37409;SDS011;23275;48.914;12.566;2024-02-28T09:39:15;37.28;;;19.67;;
37409;SDS011;23275;48.914;12.566;2024-02-28T09:41:41;46.90;;;24.13;;
37409;SDS011;23275;48.914;12.566;2024-02-28T09:44:07;30.70;;;17.38;;
37409;SDS011;23275;48.914;12.566;2024-02-28T09:46:33;33.78;;;18.33;;
37409;SDS011;23275;48.914;12.566;2024-02-28T09:49:01;30.35;;;17.98;;
37409;SDS011;23275;48.914;12.566;2024-02-28T09:51:28;31.25;;;17.00;;
37409;SDS011;23275;48.914;12.566;2024-02-28T09:53:58;34.13;;;18.05;;
37409;SDS011;23275;48.914;12.566;2024-02-28T09:56:25;35.42;;;19.30;;
37409;SDS011;23275;48.914;12.566;2024-02-28T09:58:52;31.73;;;18.13;;
37409;SDS011;23275;48.914;12.566;2024-02-28T10:01:19;28.10;;;16.27;;
37409;SDS011;23275;48.914;12.566;2024-02-28T10:03:47;29.20;;;17.08;;
37409;SDS011;23275;48.914;12.566;2024-02-28T10:06:15;28.13;;;15.63;;
37409;SDS011;23275;48.914;12.566;2024-02-28T10:08:41;29.30;;;16.63;;
37409;SDS011;23275;48.914;12.566;2024-02-28T10:11:06;28.73;;;15.15;;
37409;SDS011;23275;48.914;12.566;2024-02-28T10:13:32;32.50;;;17.00;;
37409;SDS011;23275;48.914;12.566;2024-02-28T10:15:57;25.92;;;15.00;;
37409;SDS011;23275;48.914;12.566;2024-02-28T10:18:25;27.35;;;15.23;;
37409;SDS011;23275;48.914;12.566;2024-02-28T10:20:50;28.13;;;14.85;;
37409;SDS011;23275;48.914;12.566;2024-02-28T10:23:16;27.38;;;15.13;;
37409;SDS011;23275;48.914;12.566;2024-02-28T10:25:45;25.10;;;15.15;;
37409;SDS011;23275;48.914;12.566;2024-02-28T10:28:11;25.52;;;14.48;;
37409;SDS011;23275;48.914;12.566;2024-02-28T10:30:42;28.77;;;14.93;;
37409;SDS011;23275;48.914;12.566;2024-02-28T10:33:14;23.95;;;13.85;;
37409;SDS011;23275;48.914;12.566;2024-02-28T10:35:41;26.95;;;14.98;;
37409;SDS011;23275;48.914;12.566;2024-02-28T10:38:08;25.75;;;14.82;;
37409;SDS011;23275;48.914;12.566;2024-02-28T10:40:35;26.30;;;15.50;;
37409;SDS011;23275;48.914;12.566;2024-02-28T10:43:02;24.63;;;13.60;;
37409;SDS011;23275;48.914;12.566;2024-02-28T10:45:29;26.55;;;15.10;;
37409;SDS011;23275;48.914;12.566;2024-02-28T10:47:56;24.80;;;15.05;;
37409;SDS011;23275;48.914;12.566;2024-02-28T10:50:22;25.30;;;14.38;;
37409;SDS011;23275;48.914;12.566;2024-02-28T10:52:48;27.08;;;14.43;;
37409;SDS011;23275;48.914;12.566;2024-02-28T10:55:20;25.48;;;14.27;;
37409;SDS011;23275;48.914;12.566;2024-02-28T10:57:51;29.05;;;14.35;;
37409;SDS011;23275;48.914;12.566;2024-02-28T11:00:28;24.98;;;14.40;;
37409;SDS011;23275;48.914;12.566;2024-02-28T11:02:55;21.83;;;12.93;;
37409;SDS011;23275;48.914;12.566;2024-02-28T11:05:23;22.90;;;13.55;;
37409;SDS011;23275;48.914;12.566;2024-02-28T11:07:51;20.23;;;12.95;;
37409;SDS011;23275;48.914;12.566;2024-02-28T11:10:17;23.67;;;14.18;;
37409;SDS011;23275;48.914;12.566;2024-02-28T11:12:54;24.40;;;13.73;;
37409;SDS011;23275;48.914;12.566;2024-02-28T11:15:20;22.77;;;14.10;;
37409;SDS011;23275;48.914;12.566;2024-02-28T11:17:52;25.83;;;14.65;;
37409;SDS011;23275;48.914;12.566;2024-02-28T11:20:18;22.77;;;13.52;;
37409;SDS011;23275;48.914;12.566;2024-02-28T11:22:44;23.40;;;13.73;;
37409;SDS011;23275;48.914;12.566;2024-02-28T11:25:09;22.67;;;12.98;;
37409;SDS011;23275;48.914;12.566;2024-02-28T11:27:45;25.10;;;14.52;;
37409;SDS011;23275;48.914;12.566;2024-02-28T11:30:12;26.38;;;13.00;;
37409;SDS011;23275;48.914;12.566;2024-02-28T11:32:39;26.42;;;14.55;;
37409;SDS011;23275;48.914;12.566;2024-02-28T11:35:05;26.67;;;13.95;;
37409;SDS011;23275;48.914;12.566;2024-02-28T11:37:31;21.45;;;12.82;;
37409;SDS011;23275;48.914;12.566;2024-02-28T11:39:57;21.67;;;13.05;;
37409;SDS011;23275;48.914;12.566;2024-02-28T11:42:23;20.30;;;12.93;;
37409;SDS011;23275;48.914;12.566;2024-02-28T11:44:55;23.45;;;13.35;;
37409;SDS011;23275;48.914;12.566;2024-02-28T11:47:22;20.50;;;12.73;;
37409;SDS011;23275;48.914;12.566;2024-02-28T11:49:48;18.70;;;12.70;;
37409;SDS011;23275;48.914;12.566;2024-02-28T11:52:14;26.83;;;14.25;;
37409;SDS011;23275;48.914;12.566;2024-02-28T11:54:39;20.98;;;12.38;;
37409;SDS011;23275;48.914;12.566;2024-02-28T11:57:06;23.02;;;13.02;;
37409;SDS011;23275;48.914;12.566;2024-02-28T11:59:32;23.70;;;12.68;;
37409;SDS011;23275;48.914;12.566;2024-02-28T12:01:58;23.17;;;13.30;;
37409;SDS011;23275;48.914;12.566;2024-02-28T12:04:24;25.70;;;13.05;;
37409;SDS011;23275;48.914;12.566;2024-02-28T12:06:52;21.88;;;12.55;;
37409;SDS011;23275;48.914;12.566;2024-02-28T12:09:18;23.25;;;12.77;;
37409;SDS011;23275;48.914;12.566;2024-02-28T12:11:44;21.55;;;12.93;;
37409;SDS011;23275;48.914;12.566;2024-02-28T12:14:09;21.17;;;12.07;;
37409;SDS011;23275;48.914;12.566;2024-02-28T12:16:37;21.27;;;11.98;;
37409;SDS011;23275;48.914;12.566;2024-02-28T12:19:09;22.63;;;11.30;;
37409;SDS011;23275;48.914;12.566;2024-02-28T12:21:36;21.27;;;12.75;;
37409;SDS011;23275;48.914;12.566;2024-02-28T12:24:02;22.20;;;13.95;;
37409;SDS011;23275;48.914;12.566;2024-02-28T12:26:29;21.90;;;12.77;;
37409;SDS011;23275;48.914;12.566;2024-02-28T12:28:55;25.23;;;13.07;;
37409;SDS011;23275;48.914;12.566;2024-02-28T12:31:20;24.23;;;13.95;;
37409;SDS011;23275;48.914;12.566;2024-02-28T12:33:46;28.48;;;13.45;;
37409;SDS011;23275;48.914;12.566;2024-02-28T12:36:12;23.73;;;12.45;;
37409;SDS011;23275;48.914;12.566;2024-02-28T12:38:38;22.42;;;12.95;;
37409;SDS011;23275;48.914;12.566;2024-02-28T12:41:06;22.55;;;12.77;;
37409;SDS011;23275;48.914;12.566;2024-02-28T12:43:31;23.83;;;13.88;;
37409;SDS011;23275;48.914;12.566;2024-02-28T12:45:57;21.35;;;12.48;;
37409;SDS011;23275;48.914;12.566;2024-02-28T12:48:24;22.90;;;12.88;;
37409;SDS011;23275;48.914;12.566;2024-02-28T12:50:49;26.00;;;13.02;;
37409;SDS011;23275;48.914;12.566;2024-02-28T12:53:15;20.35;;;11.95;;
37409;SDS011;23275;48.914;12.566;2024-02-28T12:55:40;27.45;;;13.45;;
37409;SDS011;23275;48.914;12.566;2024-02-28T12:58:07;24.08;;;13.38;;
37409;SDS011;23275;48.914;12.566;2024-02-28T13:00:32;22.52;;;13.27;;
37409;SDS011;23275;48.914;12.566;2024-02-28T13:02:58;23.75;;;14.07;;
37409;SDS011;23275;48.914;12.566;2024-02-28T13:05:23;27.00;;;15.80;;
37409;SDS011;23275;48.914;12.566;2024-02-28T13:07:50;27.05;;;14.13;;
37409;SDS011;23275;48.914;12.566;2024-02-28T13:10:17;22.83;;;13.63;;
37409;SDS011;23275;48.914;12.566;2024-02-28T13:12:43;22.00;;;13.43;;
37409;SDS011;23275;48.914;12.566;2024-02-28T13:15:09;26.17;;;14.50;;
37409;SDS011;23275;48.914;12.566;2024-02-28T13:17:34;23.67;;;13.98;;
37409;SDS011;23275;48.914;12.566;2024-02-28T13:20:00;22.67;;;13.27;;
37409;SDS011;23275;48.914;12.566;2024-02-28T13:22:28;23.88;;;12.77;;
37409;SDS011;23275;48.914;12.566;2024-02-28T13:24:53;26.25;;;15.13;;
37409;SDS011;23275;48.914;12.566;2024-02-28T13:27:20;31.30;;;15.82;;
37409;SDS011;23275;48.914;12.566;2024-02-28T13:29:45;27.40;;;15.85;;
37409;SDS011;23275;48.914;12.566;2024-02-28T13:32:11;25.25;;;14.35;;
37409;SDS011;23275;48.914;12.566;2024-02-28T13:34:40;21.63;;;12.27;;
37409;SDS011;23275;48.914;12.566;2024-02-28T13:37:06;22.75;;;13.50;;
37409;SDS011;23275;48.914;12.566;2024-02-28T13:39:31;26.13;;;13.32;;
37409;SDS011;23275;48.914;12.566;2024-02-28T13:41:57;24.13;;;13.15;;
37409;SDS011;23275;48.914;12.566;2024-02-28T13:44:22;21.30;;;13.02;;
37409;SDS011;23275;48.914;12.566;2024-02-28T13:46:49;18.42;;;11.13;;
37409;SDS011;23275;48.914;12.566;2024-02-28T13:49:16;22.55;;;11.57;;
37409;SDS011;23275;48.914;12.566;2024-02-28T13:51:43;20.60;;;11.35;;
37409;SDS011;23275;48.914;12.566;2024-02-28T13:54:09;18.85;;;10.80;;
37409;SDS011;23275;48.914;12.566;2024-02-28T13:56:35;19.48;;;10.75;;
37409;SDS011;23275;48.914;12.566;2024-02-28T13:59:01;21.08;;;11.68;;
37409;SDS011;23275;48.914;12.566;2024-02-28T14:01:26;22.30;;;11.45;;
37409;SDS011;23275;48.914;12.566;2024-02-28T14:03:53;20.15;;;11.23;;